sensor_id;sensor_type;location;lat;lon;timestamp;P1;durP1;ratioP1;P2;durP2;ratioP2
14732;SDS011;7457;50.960;6.830;2023-08-12T00:01:00;45.88;;;29.48;;
14732;SDS011;7457;50.960;6.830;2023-08-12T00:03:26;43.78;;;27.08;;
14732;SDS011;7457;50.960;6.830;2023-08-12T00:05:52;37.03;;;25.50;;
14732;SDS011;7457;50.960;6.830;2023-08-12T00:08:18;43.83;;;27.67;;
14732;SDS011;7457;50.960;6.830;2023-08-12T00:10:43;45.20;;;28.88;;
14732;SDS011;7457;50.960;6.830;2023-08-12T00:13:09;52.75;;;28.77;;
14732;SDS011;7457;50.960;6.830;2023-08-12T00:15:35;44.85;;;29.15;;
14732;SDS011;7457;50.960;6.830;2023-08-12T00:18:00;53.63;;;29.52;;
14732;SDS011;7457;50.960;6.830;2023-08-12T00:20:29;47.17;;;29.27;;
14732;SDS011;7457;50.960;6.830;2023-08-12T00:22:54;49.72;;;28.77;;
14732;SDS011;7457;50.960;6.830;2023-08-12T00:25:20;68.90;;;33.20;;
14732;SDS011;7457;50.960;6.830;2023-08-12T00:27:46;51.78;;;30.90;;
14732;SDS011;7457;50.960;6.830;2023-08-12T00:30:11;53.30;;;29.45;;
14732;SDS011;7457;50.960;6.830;2023-08-12T00:32:37;51.40;;;30.23;;
14732;SDS011;7457;50.960;6.830;2023-08-12T00:35:03;42.17;;;27.33;;
14732;SDS011;7457;50.960;6.830;2023-08-12T00:37:29;40.85;;;28.58;;
14732;SDS011;7457;50.960;6.830;2023-08-12T00:39:54;39.42;;;26.80;;
14732;SDS011;7457;50.960;6.830;2023-08-12T00:42:20;45.45;;;30.98;;
14732;SDS011;7457;50.960;6.830;2023-08-12T00:44:46;50.38;;;32.50;;
14732;SDS011;7457;50.960;6.830;2023-08-12T00:47:11;49.03;;;33.60;;
14732;SDS011;7457;50.960;6.830;2023-08-12T00:49:37;53.63;;;31.90;;
14732;SDS011;7457;50.960;6.830;2023-08-12T00:52:05;59.22;;;33.22;;
14732;SDS011;7457;50.960;6.830;2023-08-12T00:54:30;48.75;;;32.22;;
14732;SDS011;7457;50.960;6.830;2023-08-12T00:56:56;58.92;;;33.47;;
14732;SDS011;7457;50.960;6.830;2023-08-12T00:59:22;49.13;;;33.58;;
14732;SDS011;7457;50.960;6.830;2023-08-12T01:01:49;53.95;;;32.63;;
14732;SDS011;7457;50.960;6.830;2023-08-12T01:04:15;47.65;;;30.83;;
14732;SDS011;7457;50.960;6.830;2023-08-12T01:06:40;62.88;;;33.50;;
14732;SDS011;7457;50.960;6.830;2023-08-12T01:09:06;59.85;;;32.97;;
14732;SDS011;7457;50.960;6.830;2023-08-12T01:14:10;44.97;;;29.20;;
14732;SDS011;7457;50.960;6.830;2023-08-12T01:16:43;47.83;;;30.75;;
14732;SDS011;7457;50.960;6.830;2023-08-12T01:19:17;44.05;;;29.08;;
14732;SDS011;7457;50.960;6.830;2023-08-12T01:21:54;38.05;;;26.88;;
14732;SDS011;7457;50.960;6.830;2023-08-12T01:24:24;46.45;;;27.52;;
14732;SDS011;7457;50.960;6.830;2023-08-12T01:26:50;44.80;;;30.00;;
14732;SDS011;7457;50.960;6.830;2023-08-12T01:29:16;46.05;;;28.30;;
14732;SDS011;7457;50.960;6.830;2023-08-12T01:31:45;46.88;;;28.25;;
14732;SDS011;7457;50.960;6.830;2023-08-12T01:35:00;38.63;;;28.08;;
14732;SDS011;7457;50.960;6.830;2023-08-12T01:37:26;41.30;;;28.15;;
14732;SDS011;7457;50.960;6.830;2023-08-12T01:39:53;43.33;;;29.33;;
14732;SDS011;7457;50.960;6.830;2023-08-12T01:42:21;41.72;;;29.25;;
14732;SDS011;7457;50.960;6.830;2023-08-12T01:44:49;49.35;;;32.28;;
14732;SDS011;7457;50.960;6.830;2023-08-12T01:47:15;51.75;;;33.05;;
14732;SDS011;7457;50.960;6.830;2023-08-12T01:49:41;49.15;;;33.67;;
14732;SDS011;7457;50.960;6.830;2023-08-12T01:52:06;44.75;;;32.15;;
14732;SDS011;7457;50.960;6.830;2023-08-12T01:54:33;50.70;;;30.90;;
14732;SDS011;7457;50.960;6.830;2023-08-12T01:57:03;47.30;;;30.08;;
14732;SDS011;7457;50.960;6.830;2023-08-12T01:59:33;50.13;;;31.08;;
14732;SDS011;7457;50.960;6.830;2023-08-12T02:01:59;46.05;;;30.38;;
14732;SDS011;7457;50.960;6.830;2023-08-12T02:04:26;39.45;;;28.90;;
14732;SDS011;7457;50.960;6.830;2023-08-12T02:06:52;44.67;;;29.38;;
14732;SDS011;7457;50.960;6.830;2023-08-12T02:09:18;38.72;;;27.63;;
14732;SDS011;7457;50.960;6.830;2023-08-12T02:11:43;43.10;;;27.80;;
14732;SDS011;7457;50.960;6.830;2023-08-12T02:14:09;44.58;;;28.58;;
14732;SDS011;7457;50.960;6.830;2023-08-12T02:16:35;45.25;;;29.80;;
14732;SDS011;7457;50.960;6.830;2023-08-12T02:19:00;42.15;;;29.65;;
14732;SDS011;7457;50.960;6.830;2023-08-12T02:21:26;40.67;;;28.38;;
14732;SDS011;7457;50.960;6.830;2023-08-12T02:23:52;37.35;;;28.10;;
14732;SDS011;7457;50.960;6.830;2023-08-12T02:26:17;36.78;;;26.25;;
14732;SDS011;7457;50.960;6.830;2023-08-12T02:28:43;34.58;;;24.25;;
14732;SDS011;7457;50.960;6.830;2023-08-12T02:31:09;33.97;;;25.95;;
14732;SDS011;7457;50.960;6.830;2023-08-12T02:33:34;35.78;;;26.00;;
14732;SDS011;7457;50.960;6.830;2023-08-12T02:36:00;39.55;;;26.38;;
14732;SDS011;7457;50.960;6.830;2023-08-12T02:38:25;33.88;;;25.17;;
14732;SDS011;7457;50.960;6.830;2023-08-12T02:40:51;33.50;;;25.73;;
14732;SDS011;7457;50.960;6.830;2023-08-12T02:43:17;33.58;;;24.40;;
14732;SDS011;7457;50.960;6.830;2023-08-12T02:45:43;31.80;;;24.30;;
14732;SDS011;7457;50.960;6.830;2023-08-12T02:48:12;33.72;;;23.70;;
14732;SDS011;7457;50.960;6.830;2023-08-12T02:50:38;33.63;;;23.20;;
14732;SDS011;7457;50.960;6.830;2023-08-12T02:53:04;29.95;;;21.30;;
14732;SDS011;7457;50.960;6.830;2023-08-12T02:55:31;27.50;;;20.05;;
14732;SDS011;7457;50.960;6.830;2023-08-12T02:57:57;29.52;;;21.00;;
14732;SDS011;7457;50.960;6.830;2023-08-12T03:00:23;29.38;;;22.20;;
14732;SDS011;7457;50.960;6.830;2023-08-12T03:02:49;34.30;;;22.48;;
14732;SDS011;7457;50.960;6.830;2023-08-12T03:05:15;30.38;;;23.70;;
14732;SDS011;7457;50.960;6.830;2023-08-12T03:07:41;38.40;;;24.35;;
14732;SDS011;7457;50.960;6.830;2023-08-12T03:10:06;30.60;;;23.17;;
14732;SDS011;7457;50.960;6.830;2023-08-12T03:12:33;34.38;;;25.15;;
14732;SDS011;7457;50.960;6.830;2023-08-12T03:14:59;35.67;;;26.23;;
14732;SDS011;7457;50.960;6.830;2023-08-12T03:17:25;35.70;;;26.30;;
14732;SDS011;7457;50.960;6.830;2023-08-12T03:19:51;41.35;;;27.35;;
14732;SDS011;7457;50.960;6.830;2023-08-12T03:22:19;43.05;;;25.02;;
14732;SDS011;7457;50.960;6.830;2023-08-12T03:24:45;34.22;;;25.67;;
14732;SDS011;7457;50.960;6.830;2023-08-12T03:27:11;36.40;;;24.90;;
14732;SDS011;7457;50.960;6.830;2023-08-12T03:29:36;40.58;;;25.67;;
14732;SDS011;7457;50.960;6.830;2023-08-12T03:32:02;41.38;;;26.73;;
14732;SDS011;7457;50.960;6.830;2023-08-12T03:34:28;37.60;;;25.98;;
14732;SDS011;7457;50.960;6.830;2023-08-12T03:36:57;42.45;;;28.02;;
14732;SDS011;7457;50.960;6.830;2023-08-12T03:39:23;39.72;;;27.00;;
14732;SDS011;7457;50.960;6.830;2023-08-12T03:41:48;36.80;;;28.25;;
14732;SDS011;7457;50.960;6.830;2023-08-12T03:44:15;40.33;;;27.88;;
14732;SDS011;7457;50.960;6.830;2023-08-12T03:46:41;39.15;;;27.58;;
14732;SDS011;7457;50.960;6.830;2023-08-12T03:49:07;40.60;;;28.30;;
14732;SDS011;7457;50.960;6.830;2023-08-12T03:51:33;41.17;;;28.85;;
14732;SDS011;7457;50.960;6.830;2023-08-12T03:53:58;39.70;;;27.27;;
14732;SDS011;7457;50.960;6.830;2023-08-12T03:56:24;34.25;;;25.15;;
14732;SDS011;7457;50.960;6.830;2023-08-12T03:58:50;34.47;;;26.88;;
14732;SDS011;7457;50.960;6.830;2023-08-12T04:01:16;38.22;;;26.10;;
14732;SDS011;7457;50.960;6.830;2023-08-12T04:03:42;34.90;;;25.20;;
14732;SDS011;7457;50.960;6.830;2023-08-12T04:06:07;37.47;;;25.20;;
14732;SDS011;7457;50.960;6.830;2023-08-12T04:08:33;37.35;;;27.13;;
14732;SDS011;7457;50.960;6.830;2023-08-12T04:10:59;35.97;;;26.77;;
14732;SDS011;7457;50.960;6.830;2023-08-12T04:13:25;38.67;;;27.48;;
14732;SDS011;7457;50.960;6.830;2023-08-12T04:15:51;28.77;;;24.55;;
14732;SDS011;7457;50.960;6.830;2023-08-12T04:18:18;30.25;;;24.33;;
14732;SDS011;7457;50.960;6.830;2023-08-12T04:20:50;31.60;;;25.05;;
14732;SDS011;7457;50.960;6.830;2023-08-12T04:23:17;32.78;;;25.05;;
14732;SDS011;7457;50.960;6.830;2023-08-12T04:25:43;35.88;;;26.15;;
14732;SDS011;7457;50.960;6.830;2023-08-12T04:28:10;32.88;;;25.92;;
14732;SDS011;7457;50.960;6.830;2023-08-12T04:30:40;38.58;;;27.48;;
14732;SDS011;7457;50.960;6.830;2023-08-12T04:33:09;40.70;;;31.05;;
14732;SDS011;7457;50.960;6.830;2023-08-12T04:35:35;34.08;;;30.40;;
14732;SDS011;7457;50.960;6.830;2023-08-12T04:38:01;34.08;;;28.48;;
14732;SDS011;7457;50.960;6.830;2023-08-12T04:40:27;32.97;;;26.13;;
14732;SDS011;7457;50.960;6.830;2023-08-12T04:42:52;30.52;;;25.67;;
14732;SDS011;7457;50.960;6.830;2023-08-12T04:45:18;24.85;;;22.17;;
14732;SDS011;7457;50.960;6.830;2023-08-12T04:47:44;27.98;;;23.25;;
14732;SDS011;7457;50.960;6.830;2023-08-12T04:50:09;24.38;;;20.17;;
14732;SDS011;7457;50.960;6.830;2023-08-12T04:52:35;28.52;;;20.38;;
14732;SDS011;7457;50.960;6.830;2023-08-12T04:55:01;23.30;;;19.70;;
14732;SDS011;7457;50.960;6.830;2023-08-12T04:57:28;25.52;;;19.83;;
14732;SDS011;7457;50.960;6.830;2023-08-12T04:59:53;21.58;;;19.27;;
14732;SDS011;7457;50.960;6.830;2023-08-12T05:02:20;22.88;;;20.55;;
14732;SDS011;7457;50.960;6.830;2023-08-12T05:04:49;20.63;;;18.60;;
14732;SDS011;7457;50.960;6.830;2023-08-12T05:07:15;21.52;;;18.13;;
14732;SDS011;7457;50.960;6.830;2023-08-12T05:09:41;20.05;;;17.92;;
14732;SDS011;7457;50.960;6.830;2023-08-12T05:12:09;18.83;;;16.67;;
14732;SDS011;7457;50.960;6.830;2023-08-12T05:14:35;21.85;;;18.27;;
14732;SDS011;7457;50.960;6.830;2023-08-12T05:17:02;17.70;;;15.80;;
14732;SDS011;7457;50.960;6.830;2023-08-12T05:19:28;20.42;;;16.98;;
14732;SDS011;7457;50.960;6.830;2023-08-12T05:21:54;16.27;;;14.57;;
14732;SDS011;7457;50.960;6.830;2023-08-12T05:24:19;15.63;;;14.00;;
14732;SDS011;7457;50.960;6.830;2023-08-12T05:26:45;15.73;;;14.13;;
14732;SDS011;7457;50.960;6.830;2023-08-12T05:29:10;16.63;;;14.93;;
14732;SDS011;7457;50.960;6.830;2023-08-12T05:31:36;18.23;;;16.33;;
14732;SDS011;7457;50.960;6.830;2023-08-12T05:34:02;18.42;;;16.52;;
14732;SDS011;7457;50.960;6.830;2023-08-12T05:36:28;19.67;;;16.98;;
14732;SDS011;7457;50.960;6.830;2023-08-12T05:38:54;19.30;;;17.50;;
14732;SDS011;7457;50.960;6.830;2023-08-12T05:41:19;20.08;;;17.45;;
14732;SDS011;7457;50.960;6.830;2023-08-12T05:43:45;18.65;;;16.95;;
14732;SDS011;7457;50.960;6.830;2023-08-12T05:46:12;18.80;;;15.82;;
14732;SDS011;7457;50.960;6.830;2023-08-12T05:48:37;17.13;;;15.43;;
14732;SDS011;7457;50.960;6.830;2023-08-12T05:51:03;19.40;;;17.25;;
14732;SDS011;7457;50.960;6.830;2023-08-12T05:53:28;20.92;;;17.02;;
14732;SDS011;7457;50.960;6.830;2023-08-12T05:55:54;20.83;;;17.50;;
14732;SDS011;7457;50.960;6.830;2023-08-12T05:58:20;23.60;;;19.42;;
14732;SDS011;7457;50.960;6.830;2023-08-12T06:00:45;25.17;;;20.85;;
14732;SDS011;7457;50.960;6.830;2023-08-12T06:03:11;24.13;;;20.48;;
14732;SDS011;7457;50.960;6.830;2023-08-12T06:05:38;28.00;;;22.50;;
14732;SDS011;7457;50.960;6.830;2023-08-12T06:08:05;32.85;;;22.55;;
14732;SDS011;7457;50.960;6.830;2023-08-12T06:10:30;30.23;;;24.55;;
14732;SDS011;7457;50.960;6.830;2023-08-12T06:12:56;28.85;;;23.90;;
14732;SDS011;7457;50.960;6.830;2023-08-12T06:15:22;32.40;;;24.35;;
14732;SDS011;7457;50.960;6.830;2023-08-12T06:17:47;28.40;;;23.98;;
14732;SDS011;7457;50.960;6.830;2023-08-12T06:20:13;31.92;;;24.73;;
14732;SDS011;7457;50.960;6.830;2023-08-12T06:22:39;29.10;;;23.90;;
14732;SDS011;7457;50.960;6.830;2023-08-12T06:25:05;24.48;;;20.73;;
14732;SDS011;7457;50.960;6.830;2023-08-12T06:27:30;26.23;;;20.05;;
14732;SDS011;7457;50.960;6.830;2023-08-12T06:29:56;22.85;;;19.58;;
14732;SDS011;7457;50.960;6.830;2023-08-12T06:32:22;24.00;;;18.92;;
14732;SDS011;7457;50.960;6.830;2023-08-12T06:34:47;19.42;;;16.52;;
14732;SDS011;7457;50.960;6.830;2023-08-12T06:37:13;17.80;;;14.80;;
14732;SDS011;7457;50.960;6.830;2023-08-12T06:39:39;18.02;;;15.30;;
14732;SDS011;7457;50.960;6.830;2023-08-12T06:42:04;17.00;;;14.20;;
14732;SDS011;7457;50.960;6.830;2023-08-12T06:44:30;16.58;;;13.40;;
14732;SDS011;7457;50.960;6.830;2023-08-12T06:46:56;14.98;;;12.80;;
14732;SDS011;7457;50.960;6.830;2023-08-12T06:49:21;14.90;;;11.23;;
14732;SDS011;7457;50.960;6.830;2023-08-12T06:51:47;12.52;;;10.23;;
14732;SDS011;7457;50.960;6.830;2023-08-12T06:54:12;11.00;;;9.45;;
14732;SDS011;7457;50.960;6.830;2023-08-12T06:56:38;9.23;;;8.13;;
14732;SDS011;7457;50.960;6.830;2023-08-12T06:59:04;10.85;;;7.80;;
14732;SDS011;7457;50.960;6.830;2023-08-12T07:01:29;8.50;;;7.47;;
14732;SDS011;7457;50.960;6.830;2023-08-12T07:03:55;11.38;;;7.40;;
14732;SDS011;7457;50.960;6.830;2023-08-12T07:06:21;7.90;;;6.03;;
14732;SDS011;7457;50.960;6.830;2023-08-12T07:08:47;6.63;;;6.03;;
14732;SDS011;7457;50.960;6.830;2023-08-12T07:11:13;8.52;;;6.07;;
14732;SDS011;7457;50.960;6.830;2023-08-12T07:13:38;8.05;;;5.97;;
14732;SDS011;7457;50.960;6.830;2023-08-12T07:16:04;6.80;;;5.03;;
14732;SDS011;7457;50.960;6.830;2023-08-12T07:18:30;8.15;;;5.22;;
14732;SDS011;7457;50.960;6.830;2023-08-12T07:20:56;7.50;;;5.78;;
14732;SDS011;7457;50.960;6.830;2023-08-12T07:23:23;5.40;;;4.85;;
14732;SDS011;7457;50.960;6.830;2023-08-12T07:25:49;6.93;;;5.32;;
14732;SDS011;7457;50.960;6.830;2023-08-12T07:28:14;6.43;;;5.30;;
14732;SDS011;7457;50.960;6.830;2023-08-12T07:30:40;8.73;;;5.82;;
14732;SDS011;7457;50.960;6.830;2023-08-12T07:33:06;5.20;;;4.70;;
14732;SDS011;7457;50.960;6.830;2023-08-12T07:35:32;8.27;;;5.18;;
14732;SDS011;7457;50.960;6.830;2023-08-12T07:37:58;7.78;;;5.80;;
14732;SDS011;7457;50.960;6.830;2023-08-12T07:40:24;6.32;;;5.30;;
14732;SDS011;7457;50.960;6.830;2023-08-12T07:42:50;5.60;;;5.10;;
14732;SDS011;7457;50.960;6.830;2023-08-12T07:45:15;7.20;;;5.60;;
14732;SDS011;7457;50.960;6.830;2023-08-12T07:47:41;7.05;;;4.80;;
14732;SDS011;7457;50.960;6.830;2023-08-12T07:50:07;5.68;;;4.78;;
14732;SDS011;7457;50.960;6.830;2023-08-12T07:52:33;5.90;;;5.03;;
14732;SDS011;7457;50.960;6.830;2023-08-12T07:54:58;6.70;;;4.32;;
14732;SDS011;7457;50.960;6.830;2023-08-12T07:57:24;6.30;;;4.53;;
14732;SDS011;7457;50.960;6.830;2023-08-12T07:59:50;6.40;;;3.92;;
14732;SDS011;7457;50.960;6.830;2023-08-12T08:02:16;7.80;;;4.75;;
14732;SDS011;7457;50.960;6.830;2023-08-12T08:04:42;6.32;;;4.78;;
14732;SDS011;7457;50.960;6.830;2023-08-12T08:07:08;8.23;;;4.55;;
14732;SDS011;7457;50.960;6.830;2023-08-12T08:09:34;5.38;;;4.47;;
14732;SDS011;7457;50.960;6.830;2023-08-12T08:12:00;5.90;;;4.18;;
14732;SDS011;7457;50.960;6.830;2023-08-12T08:14:26;4.22;;;3.67;;
14732;SDS011;7457;50.960;6.830;2023-08-12T08:16:52;6.25;;;4.05;;
14732;SDS011;7457;50.960;6.830;2023-08-12T08:19:18;5.55;;;3.92;;
14732;SDS011;7457;50.960;6.830;2023-08-12T08:21:44;4.78;;;4.00;;
14732;SDS011;7457;50.960;6.830;2023-08-12T08:24:10;6.80;;;3.88;;
14732;SDS011;7457;50.960;6.830;2023-08-12T08:26:37;4.75;;;3.70;;
14732;SDS011;7457;50.960;6.830;2023-08-12T08:29:03;4.93;;;3.88;;
14732;SDS011;7457;50.960;6.830;2023-08-12T08:31:29;4.97;;;4.03;;
14732;SDS011;7457;50.960;6.830;2023-08-12T08:33:55;6.10;;;4.07;;
14732;SDS011;7457;50.960;6.830;2023-08-12T08:36:20;6.13;;;4.00;;
14732;SDS011;7457;50.960;6.830;2023-08-12T08:38:46;6.35;;;3.80;;
14732;SDS011;7457;50.960;6.830;2023-08-12T08:41:12;6.35;;;4.07;;
14732;SDS011;7457;50.960;6.830;2023-08-12T08:43:39;6.30;;;4.07;;
14732;SDS011;7457;50.960;6.830;2023-08-12T08:46:09;3.90;;;3.33;;
14732;SDS011;7457;50.960;6.830;2023-08-12T08:48:39;5.50;;;3.95;;
14732;SDS011;7457;50.960;6.830;2023-08-12T08:51:05;5.45;;;3.83;;
14732;SDS011;7457;50.960;6.830;2023-08-12T08:53:35;4.72;;;3.30;;
14732;SDS011;7457;50.960;6.830;2023-08-12T08:56:08;5.70;;;3.50;;
14732;SDS011;7457;50.960;6.830;2023-08-12T08:58:37;5.15;;;3.90;;
14732;SDS011;7457;50.960;6.830;2023-08-12T09:01:04;4.72;;;2.97;;
14732;SDS011;7457;50.960;6.830;2023-08-12T09:03:31;6.70;;;3.65;;
14732;SDS011;7457;50.960;6.830;2023-08-12T09:06:01;3.70;;;2.92;;
14732;SDS011;7457;50.960;6.830;2023-08-12T09:08:28;3.60;;;2.60;;
14732;SDS011;7457;50.960;6.830;2023-08-12T09:10:56;4.57;;;2.88;;
14732;SDS011;7457;50.960;6.830;2023-08-12T09:13:24;3.20;;;2.90;;
14732;SDS011;7457;50.960;6.830;2023-08-12T09:15:50;3.28;;;2.95;;
14732;SDS011;7457;50.960;6.830;2023-08-12T09:18:16;6.35;;;3.30;;
14732;SDS011;7457;50.960;6.830;2023-08-12T09:20:42;3.85;;;3.10;;
14732;SDS011;7457;50.960;6.830;2023-08-12T09:23:08;5.85;;;3.30;;
14732;SDS011;7457;50.960;6.830;2023-08-12T09:25:40;2.70;;;2.22;;
14732;SDS011;7457;50.960;6.830;2023-08-12T09:28:08;4.00;;;2.85;;
14732;SDS011;7457;50.960;6.830;2023-08-12T09:30:34;2.72;;;2.53;;
14732;SDS011;7457;50.960;6.830;2023-08-12T09:33:00;3.97;;;2.72;;
14732;SDS011;7457;50.960;6.830;2023-08-12T09:35:35;3.25;;;2.50;;
14732;SDS011;7457;50.960;6.830;2023-08-12T09:38:14;3.83;;;2.28;;
14732;SDS011;7457;50.960;6.830;2023-08-12T09:40:40;5.18;;;2.40;;
14732;SDS011;7457;50.960;6.830;2023-08-12T09:43:06;2.15;;;1.95;;
14732;SDS011;7457;50.960;6.830;2023-08-12T09:45:32;5.05;;;2.30;;
14732;SDS011;7457;50.960;6.830;2023-08-12T09:47:58;2.97;;;2.10;;
14732;SDS011;7457;50.960;6.830;2023-08-12T09:50:25;2.92;;;2.22;;
14732;SDS011;7457;50.960;6.830;2023-08-12T09:52:52;3.78;;;1.80;;
14732;SDS011;7457;50.960;6.830;2023-08-12T09:55:19;2.50;;;1.90;;
14732;SDS011;7457;50.960;6.830;2023-08-12T09:57:51;3.10;;;2.08;;
14732;SDS011;7457;50.960;6.830;2023-08-12T10:00:18;2.30;;;2.10;;
14732;SDS011;7457;50.960;6.830;2023-08-12T10:02:46;2.35;;;2.15;;
14732;SDS011;7457;50.960;6.830;2023-08-12T10:05:15;3.85;;;1.65;;
14732;SDS011;7457;50.960;6.830;2023-08-12T10:07:45;2.45;;;1.90;;
14732;SDS011;7457;50.960;6.830;2023-08-12T10:10:12;3.17;;;2.20;;
14732;SDS011;7457;50.960;6.830;2023-08-12T10:12:38;2.47;;;1.77;;
14732;SDS011;7457;50.960;6.830;2023-08-12T10:15:05;4.72;;;1.85;;
14732;SDS011;7457;50.960;6.830;2023-08-12T10:17:33;2.22;;;1.65;;
14732;SDS011;7457;50.960;6.830;2023-08-12T10:20:00;1.90;;;1.55;;
14732;SDS011;7457;50.960;6.830;2023-08-12T10:22:28;2.08;;;1.60;;
14732;SDS011;7457;50.960;6.830;2023-08-12T10:24:55;1.70;;;1.40;;
14732;SDS011;7457;50.960;6.830;2023-08-12T10:27:23;4.15;;;1.08;;
14732;SDS011;7457;50.960;6.830;2023-08-12T10:29:56;0.98;;;0.90;;
14732;SDS011;7457;50.960;6.830;2023-08-12T10:33:00;2.40;;;0.98;;
14732;SDS011;7457;50.960;6.830;2023-08-12T10:35:45;0.82;;;0.82;;
14732;SDS011;7457;50.960;6.830;2023-08-12T10:38:18;1.08;;;0.77;;
14732;SDS011;7457;50.960;6.830;2023-08-12T10:44:39;0.70;;;0.70;;
14732;SDS011;7457;50.960;6.830;2023-08-12T10:50:34;4.43;;;1.73;;
14732;SDS011;7457;50.960;6.830;2023-08-12T10:53:01;1.20;;;1.10;;
14732;SDS011;7457;50.960;6.830;2023-08-12T10:59:50;1.88;;;1.40;;
14732;SDS011;7457;50.960;6.830;2023-08-12T11:02:39;1.88;;;1.65;;
14732;SDS011;7457;50.960;6.830;2023-08-12T11:05:11;1.70;;;1.60;;
14732;SDS011;7457;50.960;6.830;2023-08-12T11:14:13;4.20;;;2.33;;
14732;SDS011;7457;50.960;6.830;2023-08-12T11:21:16;2.65;;;1.80;;
14732;SDS011;7457;50.960;6.830;2023-08-12T11:23:46;1.63;;;1.50;;
14732;SDS011;7457;50.960;6.830;2023-08-12T11:26:23;1.60;;;1.50;;
14732;SDS011;7457;50.960;6.830;2023-08-12T11:28:49;1.80;;;1.70;;
14732;SDS011;7457;50.960;6.830;2023-08-12T11:31:21;4.13;;;2.20;;
14732;SDS011;7457;50.960;6.830;2023-08-12T11:33:47;3.70;;;1.90;;
14732;SDS011;7457;50.960;6.830;2023-08-12T11:36:13;3.88;;;2.00;;
14732;SDS011;7457;50.960;6.830;2023-08-12T11:38:52;2.80;;;1.80;;
14732;SDS011;7457;50.960;6.830;2023-08-12T11:41:17;4.70;;;1.83;;
14732;SDS011;7457;50.960;6.830;2023-08-12T11:43:43;1.90;;;1.77;;
14732;SDS011;7457;50.960;6.830;2023-08-12T11:49:11;3.05;;;1.95;;
14732;SDS011;7457;50.960;6.830;2023-08-12T11:51:43;7.80;;;4.47;;
14732;SDS011;7457;50.960;6.830;2023-08-12T11:54:30;3.30;;;2.20;;
14732;SDS011;7457;50.960;6.830;2023-08-12T11:57:12;1.60;;;1.50;;
14732;SDS011;7457;50.960;6.830;2023-08-12T11:59:38;1.70;;;1.60;;
14732;SDS011;7457;50.960;6.830;2023-08-12T12:02:14;1.80;;;1.50;;
14732;SDS011;7457;50.960;6.830;2023-08-12T12:04:55;2.88;;;1.48;;
14732;SDS011;7457;50.960;6.830;2023-08-12T12:10:13;3.22;;;1.65;;
14732;SDS011;7457;50.960;6.830;2023-08-12T12:15:53;5.25;;;1.50;;
14732;SDS011;7457;50.960;6.830;2023-08-12T12:18:35;1.27;;;1.13;;
14732;SDS011;7457;50.960;6.830;2023-08-12T12:21:06;2.95;;;1.40;;
14732;SDS011;7457;50.960;6.830;2023-08-12T12:23:37;3.58;;;1.20;;
14732;SDS011;7457;50.960;6.830;2023-08-12T12:26:03;2.45;;;1.52;;
14732;SDS011;7457;50.960;6.830;2023-08-12T12:28:38;1.30;;;1.20;;
14732;SDS011;7457;50.960;6.830;2023-08-12T12:31:41;2.22;;;1.58;;
14732;SDS011;7457;50.960;6.830;2023-08-12T12:37:03;1.40;;;1.30;;
14732;SDS011;7457;50.960;6.830;2023-08-12T12:39:29;2.45;;;1.58;;
14732;SDS011;7457;50.960;6.830;2023-08-12T12:41:57;1.70;;;1.48;;
14732;SDS011;7457;50.960;6.830;2023-08-12T12:47:24;1.88;;;1.50;;
14732;SDS011;7457;50.960;6.830;2023-08-12T12:50:07;2.63;;;1.70;;
14732;SDS011;7457;50.960;6.830;2023-08-12T12:52:44;1.98;;;1.42;;
14732;SDS011;7457;50.960;6.830;2023-08-12T13:05:38;1.20;;;1.10;;
14732;SDS011;7457;50.960;6.830;2023-08-12T13:10:55;2.08;;;0.90;;
14732;SDS011;7457;50.960;6.830;2023-08-12T13:13:21;0.98;;;0.73;;
14732;SDS011;7457;50.960;6.830;2023-08-12T13:15:47;0.80;;;0.80;;
14732;SDS011;7457;50.960;6.830;2023-08-12T13:18:12;1.92;;;0.80;;
14732;SDS011;7457;50.960;6.830;2023-08-12T13:20:38;0.82;;;0.82;;
14732;SDS011;7457;50.960;6.830;2023-08-12T13:23:04;0.93;;;0.93;;
14732;SDS011;7457;50.960;6.830;2023-08-12T13:25:31;1.15;;;1.05;;
14732;SDS011;7457;50.960;6.830;2023-08-12T13:27:59;1.00;;;1.00;;
14732;SDS011;7457;50.960;6.830;2023-08-12T13:30:28;1.08;;;0.85;;
14732;SDS011;7457;50.960;6.830;2023-08-12T13:32:54;0.80;;;0.80;;
14732;SDS011;7457;50.960;6.830;2023-08-12T13:35:21;2.20;;;1.05;;
14732;SDS011;7457;50.960;6.830;2023-08-12T13:37:47;1.52;;;1.00;;
14732;SDS011;7457;50.960;6.830;2023-08-12T13:40:13;0.98;;;0.98;;
14732;SDS011;7457;50.960;6.830;2023-08-12T13:42:40;1.15;;;1.05;;
14732;SDS011;7457;50.960;6.830;2023-08-12T13:45:10;1.95;;;1.10;;
14732;SDS011;7457;50.960;6.830;2023-08-12T13:47:36;1.77;;;0.95;;
14732;SDS011;7457;50.960;6.830;2023-08-12T13:50:02;1.63;;;1.15;;
14732;SDS011;7457;50.960;6.830;2023-08-12T13:52:28;1.25;;;1.15;;
14732;SDS011;7457;50.960;6.830;2023-08-12T13:54:54;1.40;;;1.30;;
14732;SDS011;7457;50.960;6.830;2023-08-12T13:57:19;1.52;;;1.40;;
14732;SDS011;7457;50.960;6.830;2023-08-12T13:59:45;1.38;;;1.20;;
14732;SDS011;7457;50.960;6.830;2023-08-12T14:02:12;1.33;;;1.20;;
14732;SDS011;7457;50.960;6.830;2023-08-12T14:04:38;1.23;;;1.13;;
14732;SDS011;7457;50.960;6.830;2023-08-12T14:07:04;1.45;;;1.35;;
14732;SDS011;7457;50.960;6.830;2023-08-12T14:09:30;2.10;;;1.20;;
14732;SDS011;7457;50.960;6.830;2023-08-12T14:11:56;1.30;;;1.20;;
14732;SDS011;7457;50.960;6.830;2023-08-12T14:14:22;0.98;;;0.95;;
14732;SDS011;7457;50.960;6.830;2023-08-12T14:16:48;1.67;;;1.00;;
14732;SDS011;7457;50.960;6.830;2023-08-12T14:19:14;1.20;;;0.80;;
14732;SDS011;7457;50.960;6.830;2023-08-12T14:21:42;0.85;;;0.80;;
14732;SDS011;7457;50.960;6.830;2023-08-12T14:24:08;0.95;;;0.93;;
14732;SDS011;7457;50.960;6.830;2023-08-12T14:26:34;2.50;;;1.00;;
14732;SDS011;7457;50.960;6.830;2023-08-12T14:29:00;0.85;;;0.80;;
14732;SDS011;7457;50.960;6.830;2023-08-12T14:31:25;2.22;;;0.82;;
14732;SDS011;7457;50.960;6.830;2023-08-12T14:33:51;0.80;;;0.80;;
14732;SDS011;7457;50.960;6.830;2023-08-12T14:36:17;2.50;;;0.82;;
14732;SDS011;7457;50.960;6.830;2023-08-12T14:38:42;0.70;;;0.70;;
14732;SDS011;7457;50.960;6.830;2023-08-12T14:41:08;1.10;;;0.77;;
14732;SDS011;7457;50.960;6.830;2023-08-12T14:43:34;0.93;;;0.50;;
14732;SDS011;7457;50.960;6.830;2023-08-12T14:45:59;2.22;;;0.80;;
14732;SDS011;7457;50.960;6.830;2023-08-12T14:48:25;0.77;;;0.60;;
14732;SDS011;7457;50.960;6.830;2023-08-12T14:50:51;1.02;;;0.70;;
14732;SDS011;7457;50.960;6.830;2023-08-12T14:53:16;0.90;;;0.60;;
14732;SDS011;7457;50.960;6.830;2023-08-12T14:55:42;1.15;;;0.82;;
14732;SDS011;7457;50.960;6.830;2023-08-12T14:58:08;1.40;;;0.98;;
14732;SDS011;7457;50.960;6.830;2023-08-12T15:00:33;1.30;;;0.82;;
14732;SDS011;7457;50.960;6.830;2023-08-12T15:02:59;1.33;;;0.90;;
14732;SDS011;7457;50.960;6.830;2023-08-12T15:05:25;1.35;;;1.02;;
14732;SDS011;7457;50.960;6.830;2023-08-12T15:07:51;2.72;;;0.93;;
14732;SDS011;7457;50.960;6.830;2023-08-12T15:10:16;1.48;;;0.82;;
14732;SDS011;7457;50.960;6.830;2023-08-12T15:12:42;1.83;;;1.00;;
14732;SDS011;7457;50.960;6.830;2023-08-12T15:15:07;2.72;;;0.82;;
14732;SDS011;7457;50.960;6.830;2023-08-12T15:17:33;1.10;;;1.00;;
14732;SDS011;7457;50.960;6.830;2023-08-12T15:19:59;3.08;;;1.00;;
14732;SDS011;7457;50.960;6.830;2023-08-12T15:22:24;1.50;;;1.40;;
14732;SDS011;7457;50.960;6.830;2023-08-12T15:24:50;1.33;;;1.00;;
14732;SDS011;7457;50.960;6.830;2023-08-12T15:27:18;1.00;;;0.88;;
14732;SDS011;7457;50.960;6.830;2023-08-12T15:29:43;3.28;;;1.20;;
14732;SDS011;7457;50.960;6.830;2023-08-12T15:32:09;1.48;;;1.02;;
14732;SDS011;7457;50.960;6.830;2023-08-12T15:34:34;3.70;;;1.00;;
14732;SDS011;7457;50.960;6.830;2023-08-12T15:37:00;1.50;;;1.25;;
14732;SDS011;7457;50.960;6.830;2023-08-12T15:39:26;1.17;;;0.80;;
14732;SDS011;7457;50.960;6.830;2023-08-12T15:41:51;1.65;;;1.08;;